Time;durP1;ratioP1;P1;durP2;ratioP2;P2;SDS_P1;SDS_P2;PMS_P1;PMS_P2;Temp;Humidity;BMP_temperature;BMP_pressure;BME280_temperature;BME280_humidity;BME280_pressure;Samples;Min_cycle;Max_cycle;Signal;HPM_P1;HPM_P2
2021/03/03 00:01:46;;;;;;;51.28;28.77;;;3.50;87.60;;;;;;6119770;23;20013;-84
2021/03/03 00:04:12;;;;;;;52.63;28.23;;;3.50;87.70;;;;;;6096004;23;20009;-84
2021/03/03 00:06:39;;;;;;;53.28;28.15;;;3.50;87.90;;;;;;6121636;23;20102;-84
2021/03/03 00:09:05;;;;;;;51.22;28.27;;;3.40;88.00;;;;;;6120216;23;20020;-83
2021/03/03 00:11:31;;;;;;;52.65;27.40;;;3.40;88.10;;;;;;6097105;23;20020;-83
2021/03/03 00:13:57;;;;;;;56.80;29.08;;;3.40;88.10;;;;;;6096776;23;20016;-83
2021/03/03 00:16:23;;;;;;;48.78;28.13;;;3.40;88.00;;;;;;6072405;23;20019;-83
2021/03/03 00:18:49;;;;;;;56.38;29.73;;;3.40;88.20;;;;;;6096285;23;20044;-84
2021/03/03 00:21:14;;;;;;;46.45;25.90;;;3.40;88.20;;;;;;6096912;23;20016;-83
2021/03/03 00:23:40;;;;;;;52.60;28.98;;;3.40;88.30;;;;;;6097064;23;20023;-83
2021/03/03 00:26:06;;;;;;;54.90;28.67;;;3.30;88.40;;;;;;6103495;23;20017;-83
2021/03/03 00:28:32;;;;;;;54.60;29.77;;;3.40;88.50;;;;;;6097966;23;20487;-83
2021/03/03 00:30:58;;;;;;;49.40;27.80;;;3.30;88.50;;;;;;6096935;23;20013;-83
2021/03/03 00:33:24;;;;;;;53.45;29.20;;;3.30;88.40;;;;;;6097256;23;20524;-83
2021/03/03 00:35:50;;;;;;;44.90;25.95;;;3.30;88.50;;;;;;6096686;23;20024;-83
2021/03/03 00:38:17;;;;;;;54.95;30.15;;;3.20;88.50;;;;;;6095809;23;20017;-83
2021/03/03 00:40:42;;;;;;;57.08;28.95;;;3.20;88.50;;;;;;6098502;23;20039;-83
2021/03/03 00:43:08;;;;;;;54.58;28.98;;;3.20;88.70;;;;;;6120594;23;20013;-84
2021/03/03 00:45:34;;;;;;;55.78;27.80;;;3.10;88.90;;;;;;6098434;23;20017;-84
2021/03/03 00:48:00;;;;;;;58.17;29.40;;;3.10;88.90;;;;;;6097423;23;20108;-83
2021/03/03 00:50:26;;;;;;;59.13;30.27;;;3.10;89.00;;;;;;6120753;23;20024;-83
2021/03/03 00:52:52;;;;;;;50.88;28.13;;;3.10;89.20;;;;;;6097041;23;20036;-83
2021/03/03 00:55:17;;;;;;;54.63;29.38;;;3.00;89.00;;;;;;6097335;23;20273;-83
2021/03/03 00:57:43;;;;;;;51.65;28.45;;;3.00;89.20;;;;;;6225592;23;20048;-83
2021/03/03 01:00:10;;;;;;;53.88;28.83;;;3.00;89.40;;;;;;6096714;23;20442;-83
2021/03/03 01:02:35;;;;;;;55.88;29.73;;;3.00;89.40;;;;;;6099474;23;20017;-83
2021/03/03 01:05:01;;;;;;;55.28;29.25;;;2.90;89.40;;;;;;6097182;23;20013;-83
2021/03/03 01:07:27;;;;;;;61.17;30.45;;;2.90;89.50;;;;;;6073094;23;20462;-84
2021/03/03 01:09:53;;;;;;;63.30;30.33;;;2.90;89.50;;;;;;6096759;23;20099;-83
2021/03/03 01:12:19;;;;;;;52.00;26.98;;;2.90;89.60;;;;;;6121208;23;20526;-83
2021/03/03 01:14:44;;;;;;;55.90;29.25;;;2.80;89.80;;;;;;6098270;23;20009;-83
2021/03/03 01:17:10;;;;;;;53.92;27.58;;;2.80;89.80;;;;;;6121754;23;20028;-84
2021/03/03 01:19:36;;;;;;;51.75;27.05;;;2.80;89.90;;;;;;6145393;23;20074;-82
2021/03/03 01:22:02;;;;;;;71.53;32.03;;;2.80;90.00;;;;;;6146112;23;20598;-83
2021/03/03 01:24:28;;;;;;;53.78;27.83;;;2.80;89.90;;;;;;6098476;23;20013;-83
2021/03/03 01:26:54;;;;;;;55.10;28.42;;;2.70;89.80;;;;;;6096997;23;20479;-83
2021/03/03 01:29:19;;;;;;;57.75;28.45;;;2.80;90.00;;;;;;6122959;23;20346;-83
2021/03/03 01:31:46;;;;;;;52.70;27.58;;;2.80;90.00;;;;;;6097534;23;20017;-83
2021/03/03 01:34:11;;;;;;;45.97;25.90;;;2.70;90.00;;;;;;6122076;23;20043;-84
2021/03/03 01:36:37;;;;;;;53.45;27.67;;;2.70;90.00;;;;;;6101410;23;20051;-84
2021/03/03 01:39:03;;;;;;;58.78;26.73;;;2.70;89.90;;;;;;6073897;23;20095;-83
2021/03/03 01:41:29;;;;;;;45.95;25.33;;;2.60;89.90;;;;;;6098714;23;20009;-82
2021/03/03 01:43:55;;;;;;;54.65;27.88;;;2.60;90.00;;;;;;6097876;23;20013;-83
2021/03/03 01:46:22;;;;;;;45.63;23.50;;;2.60;90.00;;;;;;6097095;23;20476;-82
2021/03/03 01:48:48;;;;;;;47.28;23.52;;;2.50;90.00;;;;;;6098660;23;20013;-83
2021/03/03 01:51:13;;;;;;;46.13;24.73;;;2.50;89.90;;;;;;6096974;23;20020;-83
2021/03/03 01:53:39;;;;;;;47.47;23.15;;;2.40;90.00;;;;;;6122547;23;20622;-83
2021/03/03 01:56:05;;;;;;;45.22;25.05;;;2.50;90.00;;;;;;6146323;23;20017;-83
2021/03/03 01:58:31;;;;;;;41.00;22.83;;;2.40;89.90;;;;;;6097647;23;20462;-83
2021/03/03 02:00:57;;;;;;;45.00;24.63;;;2.40;90.00;;;;;;6073057;23;20070;-83
2021/03/03 02:03:23;;;;;;;47.75;25.08;;;2.40;90.00;;;;;;6096029;23;20013;-83
2021/03/03 02:05:52;;;;;;;45.35;23.35;;;2.50;90.10;;;;;;6145524;23;20017;-83
2021/03/03 02:08:20;;;;;;;49.03;25.50;;;2.40;90.00;;;;;;6098631;23;20020;-83
2021/03/03 02:10:57;;;;;;;47.67;25.55;;;2.40;90.00;;;;;;6099446;23;20195;-83
2021/03/03 02:13:28;;;;;;;45.22;24.67;;;2.30;90.00;;;;;;6123051;23;20031;-83
2021/03/03 02:15:54;;;;;;;49.30;25.42;;;2.30;90.00;;;;;;6131287;23;20466;-84
2021/03/03 02:18:20;;;;;;;48.42;25.63;;;2.30;90.00;;;;;;6096477;23;20027;-83
2021/03/03 02:21:06;;;;;;;51.53;25.52;;;2.20;90.10;;;;;;6098776;23;20017;-83
2021/03/03 02:23:44;;;;;;;50.83;25.77;;;2.20;90.20;;;;;;6097272;23;20040;-83
2021/03/03 02:26:10;;;;;;;41.70;21.38;;;2.20;90.10;;;;;;6131002;23;20378;-84
2021/03/03 02:28:35;;;;;;;46.38;25.15;;;2.20;90.00;;;;;;6097774;23;20458;-83
2021/03/03 02:31:01;;;;;;;35.78;21.88;;;2.10;90.00;;;;;;6099416;23;20020;-83
2021/03/03 02:33:28;;;;;;;37.78;20.58;;;2.10;90.10;;;;;;6098700;23;20014;-82
2021/03/03 02:35:54;;;;;;;43.03;22.33;;;2.10;90.10;;;;;;6096026;23;20070;-83
2021/03/03 02:38:20;;;;;;;40.63;22.63;;;2.10;90.10;;;;;;6098113;23;20029;-83
2021/03/03 02:40:45;;;;;;;48.63;24.73;;;2.10;90.20;;;;;;6098089;23;20066;-83
2021/03/03 02:43:16;;;;;;;47.65;25.80;;;2.00;90.30;;;;;;6072695;23;20017;-83
2021/03/03 02:45:41;;;;;;;42.65;22.42;;;2.10;90.20;;;;;;6109326;23;20407;-83
2021/03/03 02:48:08;;;;;;;46.67;23.17;;;2.10;90.10;;;;;;6102481;23;20318;-83
2021/03/03 02:50:33;;;;;;;47.65;24.05;;;2.00;90.10;;;;;;6097716;23;20262;-83
2021/03/03 02:52:59;;;;;;;43.47;23.52;;;2.00;90.20;;;;;;6073752;23;20086;-83
2021/03/03 02:55:26;;;;;;;44.67;23.90;;;2.00;90.20;;;;;;6097614;23;20037;-83
2021/03/03 02:57:56;;;;;;;49.30;25.25;;;2.00;90.20;;;;;;6224146;23;20112;-82
2021/03/03 03:00:23;;;;;;;55.58;26.50;;;2.00;90.20;;;;;;6073205;23;20021;-83
2021/03/03 03:02:51;;;;;;;46.65;24.20;;;2.00;90.20;;;;;;6122105;23;20036;-83
2021/03/03 03:05:18;;;;;;;42.33;22.23;;;1.90;90.30;;;;;;6096937;23;20016;-83
2021/03/03 03:07:48;;;;;;;43.05;23.27;;;2.00;90.20;;;;;;6095371;23;20502;-83
2021/03/03 03:10:15;;;;;;;45.05;23.90;;;2.00;90.20;;;;;;6072541;23;20020;-83
2021/03/03 03:12:43;;;;;;;48.90;25.58;;;2.00;90.10;;;;;;6120815;23;20089;-82
2021/03/03 03:15:10;;;;;;;48.90;24.40;;;2.00;90.10;;;;;;6096342;23;20040;-83
2021/03/03 03:17:35;;;;;;;42.63;23.50;;;2.00;90.10;;;;;;6097907;23;20028;-83
2021/03/03 03:20:03;;;;;;;104.63;42.55;;;2.00;90.20;;;;;;6097974;23;20507;-83
2021/03/03 03:22:29;;;;;;;66.85;32.05;;;2.10;90.30;;;;;;6127059;23;20184;-83
2021/03/03 03:24:56;;;;;;;87.25;39.22;;;2.10;90.60;;;;;;6099091;23;20473;-82
2021/03/03 03:27:22;;;;;;;105.68;43.72;;;2.20;90.60;;;;;;6097178;23;20021;-83
2021/03/03 03:29:48;;;;;;;86.30;37.20;;;2.20;90.80;;;;;;6099091;23;20507;-82
2021/03/03 03:32:13;;;;;;;72.28;34.40;;;2.30;90.90;;;;;;6074713;23;20357;-83
2021/03/03 03:34:40;;;;;;;88.57;41.15;;;2.40;90.90;;;;;;6099291;23;20016;-83
2021/03/03 03:37:06;;;;;;;85.82;40.22;;;2.50;91.00;;;;;;6097498;23;20461;-83
2021/03/03 03:39:31;;;;;;;72.70;35.45;;;2.50;91.10;;;;;;6098982;23;20013;-81
2021/03/03 03:41:57;;;;;;;86.43;39.85;;;2.50;91.00;;;;;;6097750;23;20396;-82
2021/03/03 03:44:23;;;;;;;80.30;37.72;;;2.60;91.10;;;;;;6099940;23;20024;-83
2021/03/03 03:46:49;;;;;;;81.20;35.55;;;2.60;91.20;;;;;;6097425;23;20009;-83
2021/03/03 03:49:15;;;;;;;53.78;28.52;;;2.70;91.20;;;;;;6099711;23;20173;-83
2021/03/03 03:51:41;;;;;;;50.08;27.63;;;2.70;91.10;;;;;;6074294;23;20451;-83
2021/03/03 03:54:08;;;;;;;58.88;30.40;;;2.70;90.90;;;;;;6123749;23;20020;-83
2021/03/03 03:56:34;;;;;;;68.65;33.97;;;2.60;90.90;;;;;;6104993;23;20064;-83
2021/03/03 03:59:00;;;;;;;60.53;30.50;;;2.60;91.00;;;;;;6100342;23;20024;-83
2021/03/03 04:01:26;;;;;;;66.90;32.58;;;2.60;91.00;;;;;;6122947;23;20087;-83
2021/03/03 04:03:51;;;;;;;56.33;28.33;;;2.60;91.00;;;;;;6099058;23;20031;-82
2021/03/03 04:06:17;;;;;;;70.82;33.83;;;2.70;91.10;;;;;;6126273;23;20020;-83
2021/03/03 04:08:43;;;;;;;64.00;32.28;;;2.60;91.10;;;;;;6126674;23;20054;-84
2021/03/03 04:11:09;;;;;;;60.97;30.40;;;2.60;91.10;;;;;;6150530;23;20013;-85
2021/03/03 04:13:35;;;;;;;48.65;26.98;;;2.60;91.20;;;;;;6101643;23;20013;-83
2021/03/03 04:16:01;;;;;;;48.50;24.58;;;2.60;91.20;;;;;;6102631;23;20051;-83
2021/03/03 04:18:26;;;;;;;44.33;24.08;;;2.60;91.00;;;;;;6102050;23;20442;-83
2021/03/03 04:20:52;;;;;;;42.85;23.58;;;2.60;90.90;;;;;;6103188;23;20013;-83
2021/03/03 04:23:18;;;;;;;44.20;23.58;;;2.50;90.90;;;;;;6102797;23;20373;-84
2021/03/03 04:25:44;;;;;;;42.28;21.60;;;2.50;90.80;;;;;;6153184;23;20046;-85
2021/03/03 04:28:10;;;;;;;37.35;21.10;;;2.50;90.90;;;;;;6105371;23;20013;-83
2021/03/03 04:30:35;;;;;;;43.22;23.17;;;2.40;90.80;;;;;;6105105;23;20048;-84
2021/03/03 04:33:01;;;;;;;47.17;24.17;;;2.50;90.80;;;;;;6129128;23;20019;-83
2021/03/03 04:35:28;;;;;;;47.70;26.65;;;2.40;90.70;;;;;;6101828;23;20266;-83
2021/03/03 04:37:54;;;;;;;45.95;23.73;;;2.30;90.70;;;;;;6100705;23;20045;-83
2021/03/03 04:40:20;;;;;;;47.17;24.80;;;2.30;90.70;;;;;;6102426;23;20013;-83
2021/03/03 04:42:45;;;;;;;43.03;23.75;;;2.30;90.80;;;;;;6101510;23;20016;-83
2021/03/03 04:45:11;;;;;;;66.85;32.38;;;2.20;90.80;;;;;;6100707;23;20040;-85
2021/03/03 04:47:38;;;;;;;62.80;31.67;;;2.20;90.80;;;;;;6123303;23;20076;-84
2021/03/03 04:50:05;;;;;;;55.15;30.38;;;2.20;91.00;;;;;;6100704;23;20024;-84
2021/03/03 04:52:35;;;;;;;56.38;30.27;;;2.30;91.10;;;;;;6104718;23;20013;-82
2021/03/03 04:55:02;;;;;;;60.72;30.88;;;2.30;91.10;;;;;;6126088;23;20032;-82
2021/03/03 04:57:28;;;;;;;56.42;29.27;;;2.40;91.10;;;;;;6101693;23;20020;-82
2021/03/03 04:59:54;;;;;;;53.88;28.73;;;2.40;91.10;;;;;;6127100;23;20020;-84
2021/03/03 05:02:20;;;;;;;48.53;25.40;;;2.50;91.10;;;;;;6103326;23;20090;-82
2021/03/03 05:04:46;;;;;;;50.85;27.67;;;2.40;91.00;;;;;;6102159;23;20468;-82
2021/03/03 05:07:12;;;;;;;51.65;26.35;;;2.40;91.10;;;;;;6155362;23;20533;-83
2021/03/03 05:09:38;;;;;;;52.10;28.40;;;2.40;91.00;;;;;;6100674;23;20024;-82
2021/03/03 05:12:04;;;;;;;51.05;27.65;;;2.40;91.00;;;;;;6125267;23;20013;-82
2021/03/03 05:14:30;;;;;;;53.35;27.83;;;2.40;91.00;;;;;;6100895;23;20381;-82
2021/03/03 05:16:56;;;;;;;59.13;29.50;;;2.40;91.00;;;;;;6149211;23;20115;-83
2021/03/03 05:19:21;;;;;;;61.90;31.23;;;2.40;91.10;;;;;;6099802;23;20013;-83
2021/03/03 05:21:49;;;;;;;55.80;30.20;;;2.40;91.20;;;;;;6130524;23;20442;-84
2021/03/03 05:24:15;;;;;;;58.58;32.17;;;2.40;91.20;;;;;;6100530;23;20028;-83
2021/03/03 05:26:41;;;;;;;56.92;30.13;;;2.40;91.10;;;;;;6101644;23;20024;-82
2021/03/03 05:29:07;;;;;;;61.00;30.50;;;2.60;91.30;;;;;;6078334;23;20017;-82
2021/03/03 05:31:32;;;;;;;54.38;30.75;;;2.60;91.30;;;;;;6126561;23;20035;-83
2021/03/03 05:34:01;;;;;;;52.67;30.35;;;2.60;91.40;;;;;;6128194;23;20013;-83
2021/03/03 05:36:27;;;;;;;58.33;30.65;;;2.60;91.30;;;;;;6129305;23;20044;-83
2021/03/03 05:38:53;;;;;;;59.10;30.60;;;2.70;91.40;;;;;;6129190;23;20013;-83
2021/03/03 05:41:25;;;;;;;55.75;29.65;;;2.60;91.20;;;;;;6111939;23;20013;-83
2021/03/03 05:43:51;;;;;;;59.40;28.77;;;2.70;91.10;;;;;;6126353;23;20009;-83
2021/03/03 05:46:17;;;;;;;52.35;29.17;;;2.60;91.00;;;;;;6101879;23;20082;-83
2021/03/03 05:48:49;;;;;;;54.28;29.25;;;2.60;91.00;;;;;;6154075;23;20375;-82
2021/03/03 05:51:15;;;;;;;51.35;27.83;;;2.70;91.00;;;;;;6103591;23;20009;-83
2021/03/03 05:53:43;;;;;;;54.85;27.80;;;2.60;91.00;;;;;;6100731;23;20013;-83
2021/03/03 05:56:09;;;;;;;59.50;30.35;;;2.50;91.00;;;;;;6100598;23;20366;-83
2021/03/03 05:58:38;;;;;;;51.97;27.63;;;2.50;91.00;;;;;;6127110;23;20017;-83
2021/03/03 06:01:05;;;;;;;57.58;30.88;;;2.50;91.10;;;;;;6125521;23;20013;-82
2021/03/03 06:03:31;;;;;;;55.33;30.27;;;2.50;91.20;;;;;;6102002;23;20055;-82
2021/03/03 06:05:57;;;;;;;54.28;28.85;;;2.50;91.20;;;;;;6126309;23;20449;-82
2021/03/03 06:08:24;;;;;;;50.30;29.25;;;2.50;91.20;;;;;;6126978;23;20088;-82
2021/03/03 06:10:50;;;;;;;56.05;29.00;;;2.50;91.20;;;;;;6153966;23;20263;-82
2021/03/03 06:13:16;;;;;;;54.35;27.02;;;2.50;91.50;;;;;;6154327;22;20009;-82
2021/03/03 06:15:42;;;;;;;56.17;29.15;;;2.50;91.20;;;;;;6108409;23;20010;-84
2021/03/03 06:18:09;;;;;;;47.67;27.05;;;2.50;91.20;;;;;;6081691;23;20017;-85
2021/03/03 06:20:38;;;;;;;45.35;25.38;;;2.50;91.20;;;;;;6102751;23;20103;-83
2021/03/03 06:23:26;;;;;;;46.05;24.80;;;2.50;91.10;;;;;;6131091;23;20384;-83
2021/03/03 06:25:55;;;;;;;47.30;26.15;;;2.40;91.10;;;;;;6083140;23;20005;-85
2021/03/03 06:28:42;;;;;;;55.10;28.17;;;2.40;91.10;;;;;;6152862;23;20027;-82
2021/03/03 06:31:24;;;;;;;58.10;29.15;;;2.40;91.10;;;;;;6105413;23;20365;-86
2021/03/03 06:33:53;;;;;;;50.30;27.50;;;2.40;91.20;;;;;;6119052;23;20082;-83
2021/03/03 06:36:20;;;;;;;57.08;30.63;;;2.50;91.30;;;;;;6095407;23;20252;-83
2021/03/03 06:38:46;;;;;;;59.63;31.08;;;2.50;91.30;;;;;;6097445;23;20087;-83
2021/03/03 06:41:12;;;;;;;62.53;31.00;;;2.50;91.30;;;;;;6099330;23;20009;-86
2021/03/03 06:43:38;;;;;;;55.60;30.85;;;2.60;91.30;;;;;;6100475;23;20039;-83
2021/03/03 06:46:17;;;;;;;54.55;29.77;;;2.60;91.40;;;;;;6101672;23;20302;-86
2021/03/03 06:48:44;;;;;;;55.03;31.63;;;2.60;91.30;;;;;;6149937;23;20086;-85
2021/03/03 06:51:27;;;;;;;57.78;29.73;;;2.70;91.30;;;;;;6147308;23;20017;-80
2021/03/03 06:53:58;;;;;;;49.65;30.15;;;2.80;91.40;;;;;;6120383;23;20062;-84
2021/03/03 06:56:43;;;;;;;61.53;32.78;;;2.90;91.50;;;;;;6128272;23;20081;-84
2021/03/03 06:59:22;;;;;;;66.03;32.97;;;2.90;91.40;;;;;;6123274;23;20454;-85
2021/03/03 07:01:52;;;;;;;60.58;32.83;;;3.00;91.20;;;;;;6120106;23;20024;-83
2021/03/03 07:04:23;;;;;;;60.45;31.95;;;3.10;91.30;;;;;;6119875;23;20152;-83
2021/03/03 07:06:49;;;;;;;62.88;32.92;;;3.10;91.20;;;;;;6095594;23;20438;-81
2021/03/03 07:09:15;;;;;;;57.50;31.92;;;3.20;91.20;;;;;;6072066;23;20024;-83
2021/03/03 07:11:41;;;;;;;55.38;31.33;;;3.30;91.10;;;;;;6119461;23;20006;-82
2021/03/03 07:14:17;;;;;;;58.22;31.85;;;3.40;91.10;;;;;;6122160;23;20070;-81
2021/03/03 07:17:06;;;;;;;57.53;31.58;;;3.40;91.10;;;;;;6120787;23;20028;-81
2021/03/03 07:19:32;;;;;;;55.58;30.58;;;3.50;91.30;;;;;;6124069;23;20457;-83
2021/03/03 07:21:58;;;;;;;57.80;31.88;;;3.50;91.10;;;;;;6101678;23;20017;-83
2021/03/03 07:24:24;;;;;;;58.50;31.27;;;3.50;91.00;;;;;;6102128;23;20426;-84
2021/03/03 07:26:50;;;;;;;61.53;31.35;;;3.60;91.00;;;;;;6103640;23;20025;-81
2021/03/03 07:29:16;;;;;;;56.53;31.67;;;3.60;91.00;;;;;;6098866;23;20052;-83
2021/03/03 07:31:42;;;;;;;57.30;33.00;;;3.70;90.90;;;;;;6098799;23;20052;-85
2021/03/03 07:34:08;;;;;;;57.47;31.48;;;3.70;91.10;;;;;;6098474;23;20013;-85
2021/03/03 07:36:35;;;;;;;56.40;31.05;;;3.80;91.00;;;;;;6093930;23;20139;-85
2021/03/03 07:39:08;;;;;;;58.65;32.90;;;3.80;91.00;;;;;;6093741;23;20021;-86
2021/03/03 07:41:43;;;;;;;;;;;4.00;90.90;;;;;;6117943;23;20013;-87
2021/03/03 07:44:18;;;;;;;55.33;30.75;;;4.00;91.10;;;;;;6144368;23;19959;-87
2021/03/03 07:46:47;;;;;;;62.45;32.30;;;4.10;90.70;;;;;;6094154;23;20016;-85
2021/03/03 07:49:33;;;;;;;55.63;30.58;;;4.20;90.60;;;;;;6095512;23;20084;-84
2021/03/03 07:51:59;;;;;;;57.85;31.42;;;4.20;90.70;;;;;;6119151;23;20024;-82
2021/03/03 07:54:25;;;;;;;53.80;29.98;;;4.30;90.90;;;;;;6096343;23;20017;-83
2021/03/03 07:56:51;;;;;;;52.63;32.55;;;4.30;90.60;;;;;;6098185;23;20510;-86
2021/03/03 07:59:17;;;;;;;64.97;33.55;;;4.40;90.60;;;;;;6099518;23;20009;-83
2021/03/03 08:01:43;;;;;;;58.78;36.03;;;4.40;90.60;;;;;;6103130;23;20017;-84
2021/03/03 08:04:08;;;;;;;63.83;38.95;;;4.40;90.60;;;;;;6097371;23;20439;-83
2021/03/03 08:06:39;;;;;;;65.50;40.40;;;4.40;90.60;;;;;;6095877;23;20009;-85
2021/03/03 08:09:05;;;;;;;61.28;38.97;;;4.60;90.60;;;;;;6125532;23;20017;-87
2021/03/03 08:11:41;;;;;;;62.53;37.67;;;4.60;90.60;;;;;;6146139;23;20066;-83
2021/03/03 08:14:30;;;;;;;66.90;37.28;;;4.60;90.60;;;;;;6108669;23;20013;-84
2021/03/03 08:16:56;;;;;;;65.53;34.97;;;4.70;90.60;;;;;;6118551;23;20063;-85
2021/03/03 08:19:22;;;;;;;64.43;35.60;;;4.80;90.50;;;;;;6120903;23;20017;-86
2021/03/03 08:21:48;;;;;;;60.63;36.70;;;4.80;90.50;;;;;;6099534;23;20017;-83
2021/03/03 08:24:43;;;;;;;61.67;36.08;;;4.90;90.50;;;;;;6124806;23;20009;-85
2021/03/03 08:27:31;;;;;;;58.65;37.15;;;5.10;90.60;;;;;;6123356;23;20519;-86
2021/03/03 08:30:13;;;;;;;68.53;42.63;;;5.10;90.50;;;;;;6147772;23;20070;-87
2021/03/03 08:32:39;;;;;;;72.82;44.47;;;5.20;90.40;;;;;;6149723;23;20013;-83
2021/03/03 08:35:06;;;;;;;65.00;43.65;;;5.30;90.40;;;;;;6099131;23;20458;-85
2021/03/03 08:37:33;;;;;;;71.47;42.00;;;5.50;90.40;;;;;;6097400;23;20271;-84
2021/03/03 08:40:00;;;;;;;71.78;38.83;;;5.60;90.30;;;;;;6094303;23;20067;-83
2021/03/03 08:42:30;;;;;;;69.45;40.53;;;5.70;90.10;;;;;;6093779;23;20017;-83
2021/03/03 08:45:01;;;;;;;63.30;36.53;;;5.80;90.10;;;;;;6120434;23;20518;-85
2021/03/03 08:47:49;;;;;;;58.22;35.63;;;5.80;90.00;;;;;;6093378;23;20021;-83
2021/03/03 08:50:36;;;;;;;60.63;37.50;;;6.00;90.00;;;;;;6119045;23;20106;-86
2021/03/03 08:53:22;;;;;;;64.68;38.03;;;6.10;90.00;;;;;;6095682;23;20036;-84
2021/03/03 08:55:48;;;;;;;66.50;36.92;;;6.10;89.80;;;;;;6094969;23;20198;-82
2021/03/03 08:58:46;;;;;;;72.47;38.83;;;6.20;89.60;;;;;;6094157;23;20473;-84
2021/03/03 09:01:11;;;;;;;63.25;37.13;;;6.40;89.80;;;;;;6130316;22;20021;-85
2021/03/03 09:03:37;;;;;;;64.53;37.63;;;6.50;89.50;;;;;;6096985;23;20009;-86
2021/03/03 09:06:03;;;;;;;62.13;36.05;;;6.60;89.30;;;;;;6098184;23;20357;-85
2021/03/03 09:08:29;;;;;;;67.97;38.25;;;6.70;89.00;;;;;;6105039;23;20017;-83
2021/03/03 09:10:54;;;;;;;62.08;36.35;;;6.80;89.10;;;;;;6112340;23;20056;-84
2021/03/03 09:13:24;;;;;;;62.25;38.50;;;6.90;88.80;;;;;;6098212;23;20031;-84
2021/03/03 09:16:05;;;;;;;70.50;39.95;;;7.00;89.20;;;;;;6122863;23;20021;-87
2021/03/03 09:18:31;;;;;;;66.40;37.13;;;7.20;88.50;;;;;;6120933;23;20354;-87
2021/03/03 09:21:12;;;;;;;58.88;35.38;;;7.30;88.20;;;;;;6099201;23;20009;-83
2021/03/03 09:23:38;;;;;;;66.72;36.45;;;7.40;87.90;;;;;;6135024;23;20013;-86
2021/03/03 09:26:20;;;;;;;62.35;37.70;;;7.50;87.60;;;;;;6123288;23;20051;-83
2021/03/03 09:28:46;;;;;;;61.65;34.75;;;7.60;87.50;;;;;;6099407;23;20150;-86
2021/03/03 09:31:32;;;;;;;61.97;37.13;;;7.60;87.50;;;;;;6078950;23;20036;-83
2021/03/03 09:33:58;;;;;;;61.45;37.53;;;7.70;87.00;;;;;;6109561;23;20196;-84
2021/03/03 09:36:24;;;;;;;59.90;36.30;;;7.80;87.20;;;;;;6101191;23;20033;-86
2021/03/03 09:38:58;;;;;;;66.82;38.28;;;7.90;87.30;;;;;;6097465;23;20027;-85
2021/03/03 09:41:24;;;;;;;63.45;38.42;;;8.00;87.30;;;;;;6101552;23;20040;-85
2021/03/03 09:44:07;;;;;;;60.00;36.63;;;8.10;87.20;;;;;;6128808;23;20031;-85
2021/03/03 09:46:54;;;;;;;67.85;39.05;;;8.20;86.90;;;;;;6098246;23;20094;-83
2021/03/03 09:49:24;;;;;;;66.03;38.53;;;8.30;86.50;;;;;;6120202;23;20468;-84
2021/03/03 09:51:50;;;;;;;68.28;40.63;;;8.40;86.40;;;;;;6097253;23;20078;-86
2021/03/03 09:54:29;;;;;;;64.18;40.28;;;8.50;86.30;;;;;;6096292;23;20017;-83
2021/03/03 09:57:04;;;;;;;67.75;40.67;;;8.60;86.10;;;;;;6095498;23;20017;-85
2021/03/03 09:59:30;;;;;;;67.15;40.60;;;8.70;85.90;;;;;;6145751;23;20021;-85
2021/03/03 10:01:57;;;;;;;68.28;41.67;;;8.90;85.60;;;;;;6094994;23;20013;-85
2021/03/03 10:04:23;;;;;;;66.28;40.08;;;8.90;85.00;;;;;;6097561;23;20013;-85
2021/03/03 10:06:49;;;;;;;66.68;41.00;;;9.00;84.70;;;;;;6094411;23;20501;-85
2021/03/03 10:09:15;;;;;;;67.22;41.45;;;9.10;84.40;;;;;;6097282;23;20101;-84
2021/03/03 10:11:42;;;;;;;65.60;41.30;;;9.10;84.40;;;;;;6122992;23;20025;-84
2021/03/03 10:14:11;;;;;;;70.78;41.40;;;9.20;84.20;;;;;;6097438;23;20009;-84
2021/03/03 10:16:36;;;;;;;62.03;39.95;;;9.40;84.00;;;;;;6099279;23;20283;-85
2021/03/03 10:19:08;;;;;;;62.65;41.83;;;9.40;83.20;;;;;;6102526;23;20086;-84
2021/03/03 10:21:52;;;;;;;60.90;40.03;;;9.50;83.20;;;;;;6095416;23;20017;-83
2021/03/03 10:24:19;;;;;;;67.53;42.53;;;9.60;82.20;;;;;;6098559;23;20013;-83
2021/03/03 10:26:46;;;;;;;63.10;40.05;;;9.60;82.70;;;;;;6096042;23;20013;-85
2021/03/03 10:29:31;;;;;;;63.40;39.67;;;9.70;82.70;;;;;;6127246;23;20361;-84
2021/03/03 10:32:10;;;;;;;67.40;40.10;;;9.90;82.10;;;;;;6122255;23;20028;-86
2021/03/03 10:34:36;;;;;;;63.00;40.58;;;9.90;82.00;;;;;;6107762;23;20016;-85
2021/03/03 10:37:03;;;;;;;66.72;42.33;;;10.00;82.00;;;;;;6074262;23;20013;-84
2021/03/03 10:39:29;;;;;;;68.72;42.33;;;10.10;81.90;;;;;;6096845;23;20396;-85
2021/03/03 10:42:03;;;;;;;64.15;41.25;;;10.20;81.70;;;;;;6072940;23;20021;-85
2021/03/03 10:44:39;;;;;;;62.10;40.90;;;10.20;80.90;;;;;;6097643;23;20012;-84
2021/03/03 10:47:04;;;;;;;67.38;43.28;;;10.20;80.70;;;;;;6120467;23;20021;-84
2021/03/03 10:49:30;;;;;;;67.20;44.08;;;10.20;80.90;;;;;;6121160;23;20453;-88
2021/03/03 10:51:56;;;;;;;65.68;43.95;;;10.20;81.20;;;;;;6123129;23;20013;-86
2021/03/03 10:54:33;;;;;;;67.65;44.80;;;10.20;81.20;;;;;;6098866;23;20009;-84
2021/03/03 10:57:08;;;;;;;65.70;44.92;;;10.20;81.20;;;;;;6094482;23;20067;-85
2021/03/03 10:59:34;;;;;;;64.63;42.85;;;10.20;81.10;;;;;;6096357;23;20357;-84
2021/03/03 11:02:01;;;;;;;69.50;43.42;;;10.20;80.90;;;;;;6094843;23;20028;-84
2021/03/03 11:04:46;;;;;;;65.43;44.45;;;10.30;80.90;;;;;;6098735;23;20013;-86
2021/03/03 11:07:15;;;;;;;70.50;43.28;;;10.20;80.50;;;;;;6119146;23;20028;-86
2021/03/03 11:09:41;;;;;;;65.97;43.85;;;10.30;80.70;;;;;;6096093;23;20024;-84
2021/03/03 11:12:07;;;;;;;65.47;43.72;;;10.30;81.00;;;;;;6095605;23;20450;-83
2021/03/03 11:14:34;;;;;;;64.90;43.80;;;10.30;81.20;;;;;;6098700;23;20013;-84
2021/03/03 11:17:01;;;;;;;61.40;42.00;;;10.30;81.00;;;;;;6119430;23;20102;-84
2021/03/03 11:19:28;;;;;;;65.00;42.33;;;10.40;80.90;;;;;;6121185;23;20017;-86
2021/03/03 11:21:56;;;;;;;65.32;42.72;;;10.40;80.70;;;;;;6076876;23;20013;-85
2021/03/03 11:24:23;;;;;;;63.13;42.78;;;10.50;80.90;;;;;;6099546;23;20020;-83
2021/03/03 11:26:49;;;;;;;63.03;41.95;;;10.50;80.80;;;;;;6099876;23;20040;-84
2021/03/03 11:29:16;;;;;;;60.13;40.97;;;10.60;80.70;;;;;;6072173;23;20017;-86
2021/03/03 11:31:42;;;;;;;64.75;42.53;;;10.70;80.40;;;;;;6097118;23;20013;-84
2021/03/03 11:34:09;;;;;;;58.88;41.15;;;10.80;80.40;;;;;;6074396;23;20484;-85
2021/03/03 11:36:35;;;;;;;63.00;41.83;;;10.90;80.20;;;;;;6092956;23;20017;-84
2021/03/03 11:39:01;;;;;;;64.90;43.97;;;11.00;80.00;;;;;;6093215;23;20092;-87
2021/03/03 11:41:27;;;;;;;65.55;44.58;;;11.20;79.90;;;;;;6092681;23;20023;-84
2021/03/03 11:43:54;;;;;;;62.25;43.25;;;11.30;79.20;;;;;;6070880;23;20376;-86
2021/03/03 11:46:21;;;;;;;75.43;44.58;;;11.30;78.40;;;;;;6092549;23;20479;-86
2021/03/03 11:48:46;;;;;;;64.63;45.33;;;11.40;78.20;;;;;;6092561;23;20036;-86
2021/03/03 11:51:13;;;;;;;65.63;44.53;;;11.40;78.00;;;;;;6092396;23;20055;-86
2021/03/03 11:53:39;;;;;;;70.13;46.10;;;11.60;77.90;;;;;;6093841;23;20023;-86
2021/03/03 11:56:05;;;;;;;66.30;45.72;;;11.60;77.60;;;;;;6095253;23;20084;-86
2021/03/03 11:58:31;;;;;;;61.17;45.03;;;11.80;77.10;;;;;;6119046;23;20453;-85
2021/03/03 12:00:57;;;;;;;67.80;46.38;;;11.80;76.60;;;;;;6100133;23;20081;-85
2021/03/03 12:03:23;;;;;;;69.57;46.95;;;11.80;76.30;;;;;;6093968;23;20032;-85
2021/03/03 12:05:48;;;;;;;60.42;44.33;;;11.90;75.60;;;;;;6091762;23;20080;-85
2021/03/03 12:08:14;;;;;;;75.68;50.50;;;11.80;75.30;;;;;;6117573;23;20291;-88
2021/03/03 12:10:40;;;;;;;67.72;48.05;;;11.70;75.10;;;;;;6117145;23;20476;-86
2021/03/03 12:13:06;;;;;;;63.58;45.15;;;11.60;75.20;;;;;;6093844;23;20044;-87
2021/03/03 12:15:32;;;;;;;66.50;47.05;;;11.50;75.00;;;;;;6067875;23;20016;-85
2021/03/03 12:17:58;;;;;;;64.13;44.50;;;11.50;75.10;;;;;;6091290;23;20395;-88
2021/03/03 12:20:26;;;;;;;64.00;45.65;;;11.40;75.20;;;;;;6092615;23;20013;-87
2021/03/03 12:22:52;;;;;;;63.75;45.08;;;11.40;75.50;;;;;;6095668;23;20017;-87
2021/03/03 12:25:18;;;;;;;58.33;41.78;;;11.40;75.80;;;;;;6072121;23;20499;-90
2021/03/03 12:27:43;;;;;;;58.58;43.08;;;11.40;75.30;;;;;;6092772;23;20039;-86
2021/03/03 12:30:10;;;;;;;54.22;41.53;;;11.40;75.50;;;;;;6092717;23;20040;-84
2021/03/03 12:32:36;;;;;;;63.70;41.03;;;11.40;75.70;;;;;;6068244;23;20024;-87
2021/03/03 12:35:03;;;;;;;57.40;39.70;;;11.50;75.60;;;;;;6070037;23;20009;-88
2021/03/03 12:37:29;;;;;;;53.03;37.80;;;11.60;75.60;;;;;;6069269;23;20021;-87
2021/03/03 12:39:55;;;;;;;57.30;39.50;;;11.60;75.70;;;;;;6090738;23;20371;-87
2021/03/03 12:42:21;;;;;;;54.25;37.70;;;11.70;75.20;;;;;;6068535;23;20017;-87